Time;durP1;ratioP1;P1;durP2;ratioP2;P2;SDS_P1;SDS_P2;PMS_P1;PMS_P2;Temp;Humidity;BMP_temperature;BMP_pressure;BME280_temperature;BME280_humidity;BME280_pressure;Samples;Min_cycle;Max_cycle;Signal;HPM_P1;HPM_P2
2022/11/27 00:02:11;;;;;;;12.55;5.68;;;6.10;99.90;;;;;;4986334;28;20046;-83
2022/11/27 00:04:36;;;;;;;9.82;5.60;;;6.10;99.90;;;;;;4985010;28;20505;-80
2022/11/27 00:07:02;;;;;;;10.02;6.00;;;6.10;99.90;;;;;;4985591;28;20053;-82
2022/11/27 00:09:27;;;;;;;12.15;6.88;;;6.10;99.90;;;;;;4985046;28;20092;-80
2022/11/27 00:11:53;;;;;;;17.60;5.68;;;6.10;99.90;;;;;;4985213;28;20049;-78
2022/11/27 00:14:19;;;;;;;9.98;5.68;;;6.10;99.90;;;;;;4986036;28;20173;-80
2022/11/27 00:16:44;;;;;;;19.77;7.05;;;6.10;99.90;;;;;;4985102;28;20062;-83
2022/11/27 00:19:11;;;;;;;41.53;6.03;;;6.10;99.90;;;;;;4985444;28;20034;-78
2022/11/27 00:21:37;;;;;;;13.32;5.47;;;6.10;99.90;;;;;;4986059;28;20046;-82
2022/11/27 00:24:05;;;;;;;10.10;4.97;;;6.10;99.90;;;;;;4985720;28;20504;-80
2022/11/27 00:26:31;;;;;;;10.02;5.57;;;6.10;99.90;;;;;;4986135;28;20050;-81
2022/11/27 00:28:57;;;;;;;11.55;6.22;;;6.10;99.90;;;;;;4984031;28;20035;-81
2022/11/27 00:31:29;;;;;;;7.95;5.35;;;6.10;99.90;;;;;;4984469;28;20046;-80
2022/11/27 00:33:56;;;;;;;11.73;7.35;;;6.10;99.90;;;;;;4983376;28;20170;-81
2022/11/27 00:36:23;;;;;;;12.43;5.18;;;6.00;99.90;;;;;;4985667;28;20057;-80
2022/11/27 00:38:48;;;;;;;20.23;5.30;;;6.10;99.90;;;;;;4985053;28;20128;-81
2022/11/27 00:41:17;;;;;;;8.85;5.57;;;6.00;99.90;;;;;;4986011;28;20070;-81
2022/11/27 00:43:42;;;;;;;11.65;5.85;;;6.00;99.90;;;;;;4985836;28;20046;-81
2022/11/27 00:46:08;;;;;;;11.57;5.70;;;6.00;99.90;;;;;;4985908;28;20500;-81
2022/11/27 00:48:34;;;;;;;14.57;5.70;;;6.00;99.90;;;;;;4966749;28;20046;-82
2022/11/27 00:51:01;;;;;;;8.80;4.95;;;6.00;99.90;;;;;;4985549;28;20042;-79
2022/11/27 00:53:27;;;;;;;8.07;5.53;;;6.00;99.90;;;;;;4985280;28;20034;-82
2022/11/27 00:55:54;;;;;;;17.27;6.13;;;6.00;99.90;;;;;;4988391;28;20170;-80
2022/11/27 00:58:20;;;;;;;8.93;4.90;;;5.90;99.90;;;;;;4988219;28;20045;-82
2022/11/27 01:00:52;;;;;;;9.30;3.88;;;6.00;99.90;;;;;;4985747;28;20082;-81
2022/11/27 01:03:18;;;;;;;10.80;4.65;;;6.00;99.90;;;;;;4984816;28;20074;-81
2022/11/27 01:05:43;;;;;;;8.60;4.22;;;5.90;99.90;;;;;;4985931;28;20132;-78
2022/11/27 01:08:09;;;;;;;7.47;4.03;;;5.90;99.90;;;;;;4983307;28;20757;-81
2022/11/27 01:10:34;;;;;;;10.77;5.07;;;5.90;99.90;;;;;;4985497;28;20408;-81
2022/11/27 01:13:00;;;;;;;10.45;3.88;;;5.90;99.90;;;;;;4983197;28;20062;-81
2022/11/27 01:15:26;;;;;;;17.80;4.93;;;5.90;99.90;;;;;;4985393;28;20060;-81
2022/11/27 01:17:51;;;;;;;6.15;4.00;;;5.90;99.90;;;;;;4984863;28;20122;-81
2022/11/27 01:20:17;;;;;;;9.93;5.30;;;5.90;99.90;;;;;;4983622;28;20043;-80
2022/11/27 01:22:42;;;;;;;9.07;4.90;;;5.90;99.90;;;;;;4983916;28;20047;-81
2022/11/27 01:25:08;;;;;;;6.53;5.03;;;5.90;99.90;;;;;;4983798;28;20054;-79
2022/11/27 01:27:34;;;;;;;9.38;4.57;;;5.90;99.90;;;;;;4985384;28;20074;-82
2022/11/27 01:29:59;;;;;;;18.08;5.25;;;6.00;99.90;;;;;;4983501;28;20064;-82
2022/11/27 01:32:25;;;;;;;7.40;4.53;;;6.00;99.90;;;;;;5000213;28;20054;-82
2022/11/27 01:34:50;;;;;;;11.48;4.95;;;6.00;99.90;;;;;;4982520;28;20453;-80
2022/11/27 01:37:16;;;;;;;10.40;5.63;;;6.00;99.90;;;;;;4985731;28;20101;-81
2022/11/27 01:39:42;;;;;;;7.43;4.00;;;6.00;99.90;;;;;;4983373;28;20081;-81
2022/11/27 01:42:10;;;;;;;14.65;6.05;;;6.10;99.90;;;;;;4986835;28;20042;-82
2022/11/27 01:44:36;;;;;;;20.27;5.93;;;6.00;99.90;;;;;;4988895;28;20121;-81
2022/11/27 01:47:10;;;;;;;10.15;6.20;;;6.00;99.90;;;;;;4987405;28;20551;-80
2022/11/27 01:49:41;;;;;;;18.02;6.47;;;6.00;99.90;;;;;;4987747;28;20050;-79
2022/11/27 01:52:11;;;;;;;12.05;6.00;;;6.10;99.90;;;;;;4987245;28;20082;-81
2022/11/27 01:54:48;;;;;;;12.73;6.13;;;6.00;99.90;;;;;;4971207;28;20057;-81
2022/11/27 01:57:22;;;;;;;8.73;5.10;;;6.10;99.90;;;;;;4969971;28;20043;-81
2022/11/27 01:59:49;;;;;;;13.07;3.40;;;6.10;99.90;;;;;;4969638;28;20058;-79
2022/11/27 02:02:15;;;;;;;14.15;6.35;;;6.10;99.90;;;;;;4968351;28;20501;-81
2022/11/27 02:04:41;;;;;;;11.55;5.15;;;6.10;99.90;;;;;;4968022;28;20089;-80
2022/11/27 02:07:06;;;;;;;13.98;5.65;;;6.10;99.90;;;;;;4969267;28;20498;-81
2022/11/27 02:09:32;;;;;;;10.30;5.75;;;6.10;99.90;;;;;;4980322;28;20451;-82
2022/11/27 02:12:16;;;;;;;14.95;7.15;;;6.10;99.90;;;;;;4988624;28;20540;-81
2022/11/27 02:15:06;;;;;;;6.28;4.15;;;6.10;99.90;;;;;;4988017;28;20046;-82
2022/11/27 02:17:32;;;;;;;8.93;6.57;;;6.10;99.90;;;;;;4988373;28;20073;-81
2022/11/27 02:20:06;;;;;;;10.30;4.60;;;6.10;99.90;;;;;;4986328;28;20693;-80
2022/11/27 02:22:42;;;;;;;14.32;5.53;;;6.10;99.90;;;;;;4988677;28;20072;-79
2022/11/27 02:25:17;;;;;;;8.05;4.88;;;6.10;99.90;;;;;;4988249;28;20045;-80
2022/11/27 02:28:11;;;;;;;14.88;4.50;;;6.10;99.90;;;;;;4986882;28;20081;-79
2022/11/27 02:30:42;;;;;;;12.10;6.80;;;6.10;99.90;;;;;;4968576;28;20050;-80
2022/11/27 02:33:10;;;;;;;8.35;4.57;;;6.10;99.90;;;;;;4968930;28;20065;-79
2022/11/27 02:35:59;;;;;;;9.65;5.82;;;6.10;99.90;;;;;;4974025;28;20046;-81
2022/11/27 02:38:31;;;;;;;15.10;4.65;;;6.10;99.90;;;;;;4986910;28;20046;-77
2022/11/27 02:41:18;;;;;;;7.25;3.83;;;6.10;99.90;;;;;;4985523;28;20047;-82
2022/11/27 02:43:49;;;;;;;9.85;4.45;;;6.10;99.90;;;;;;4986286;28;20482;-78
2022/11/27 02:46:16;;;;;;;14.60;4.07;;;6.10;99.90;;;;;;4987786;28;20046;-81
2022/11/27 02:48:47;;;;;;;4.63;3.47;;;6.10;99.90;;;;;;4986787;28;20193;-82
2022/11/27 02:51:16;;;;;;;13.43;4.10;;;6.10;99.90;;;;;;4986190;28;20150;-81
2022/11/27 02:53:47;;;;;;;6.30;4.45;;;6.10;99.90;;;;;;4987422;28;20038;-82
2022/11/27 02:56:17;;;;;;;10.95;4.03;;;6.10;99.90;;;;;;4987398;28;20046;-82
2022/11/27 02:58:45;;;;;;;8.95;5.15;;;6.10;99.90;;;;;;4987349;28;20046;-80
2022/11/27 03:01:13;;;;;;;7.40;4.95;;;6.10;99.90;;;;;;4987627;28;20057;-80
2022/11/27 03:03:44;;;;;;;10.02;4.63;;;6.10;99.90;;;;;;4985059;28;20062;-81
2022/11/27 03:06:17;;;;;;;6.47;3.63;;;6.10;99.90;;;;;;4986070;28;20121;-81
2022/11/27 03:08:58;;;;;;;7.35;4.43;;;6.10;99.90;;;;;;4987200;28;20405;-81
2022/11/27 03:11:29;;;;;;;8.05;3.75;;;6.10;99.90;;;;;;4987515;28;20054;-81
2022/11/27 03:14:05;;;;;;;6.47;3.35;;;6.10;99.90;;;;;;4986967;28;20139;-81
2022/11/27 03:16:49;;;;;;;12.57;5.13;;;6.10;99.90;;;;;;4987468;28;20050;-80
2022/11/27 03:19:20;;;;;;;10.77;5.15;;;6.10;99.90;;;;;;4986577;28;20042;-81
2022/11/27 03:21:55;;;;;;;5.72;4.68;;;6.20;99.90;;;;;;4986606;28;20397;-81
2022/11/27 03:24:21;;;;;;;7.47;5.07;;;6.10;99.90;;;;;;4986277;28;20038;-82
2022/11/27 03:26:47;;;;;;;9.48;4.00;;;6.10;99.90;;;;;;4986234;28;20489;-80
2022/11/27 03:29:26;;;;;;;10.23;4.03;;;6.10;99.90;;;;;;4985753;28;20049;-82
2022/11/27 03:31:52;;;;;;;7.82;4.20;;;6.10;99.90;;;;;;4986877;28;20050;-81
2022/11/27 03:34:17;;;;;;;14.77;6.00;;;6.10;99.90;;;;;;4985929;28;20049;-81
2022/11/27 03:36:44;;;;;;;6.03;3.10;;;6.20;99.90;;;;;;4987437;28;20072;-79
2022/11/27 03:39:10;;;;;;;7.28;4.00;;;6.10;99.90;;;;;;4986841;28;20042;-78
2022/11/27 03:42:10;;;;;;;9.60;5.07;;;6.10;99.90;;;;;;4986918;28;20057;-81
2022/11/27 03:44:45;;;;;;;7.93;4.45;;;6.10;99.90;;;;;;4980772;28;20058;-82
2022/11/27 03:47:13;;;;;;;9.43;4.70;;;6.10;99.90;;;;;;4985478;28;20046;-81
2022/11/27 03:49:51;;;;;;;10.52;5.55;;;6.10;99.90;;;;;;4985484;28;20474;-81
2022/11/27 03:52:35;;;;;;;6.20;4.32;;;6.10;99.90;;;;;;4986374;28;20149;-81
2022/11/27 03:55:08;;;;;;;11.07;4.75;;;6.10;99.90;;;;;;4986057;28;20096;-81
2022/11/27 03:58:00;;;;;;;12.35;4.80;;;6.10;99.90;;;;;;4986649;28;20054;-80
2022/11/27 04:00:30;;;;;;;10.13;4.75;;;6.10;99.90;;;;;;4978947;28;20548;-81
2022/11/27 04:02:56;;;;;;;8.13;4.70;;;6.00;99.90;;;;;;4983266;28;20125;-78
2022/11/27 04:05:22;;;;;;;4.15;3.35;;;6.00;99.90;;;;;;4985753;28;20559;-80
2022/11/27 04:07:47;;;;;;;7.80;4.63;;;6.00;99.90;;;;;;4986792;28;20053;-80
2022/11/27 04:10:13;;;;;;;9.43;4.13;;;6.00;99.90;;;;;;4986487;28;20045;-81
2022/11/27 04:12:39;;;;;;;9.63;5.25;;;6.00;99.90;;;;;;4986093;28;20046;-79
2022/11/27 04:15:06;;;;;;;8.20;6.03;;;6.00;99.90;;;;;;4984832;28;20046;-80
2022/11/27 04:17:32;;;;;;;13.77;5.28;;;6.00;99.90;;;;;;4984160;28;20132;-78
2022/11/27 04:19:57;;;;;;;6.38;4.95;;;6.00;99.90;;;;;;4986139;28;20110;-79
2022/11/27 04:22:23;;;;;;;8.85;4.07;;;6.00;99.90;;;;;;4986088;28;20172;-81
2022/11/27 04:24:49;;;;;;;9.40;4.75;;;6.00;99.90;;;;;;4984812;28;20077;-80
2022/11/27 04:27:15;;;;;;;6.65;4.10;;;6.00;99.90;;;;;;4985469;28;20054;-81
2022/11/27 04:29:41;;;;;;;6.15;3.65;;;6.00;99.90;;;;;;4986272;28;20046;-79
2022/11/27 04:32:06;;;;;;;7.78;4.28;;;6.00;99.90;;;;;;4986162;28;20045;-82
2022/11/27 04:34:32;;;;;;;6.20;5.18;;;6.00;99.90;;;;;;4984959;28;20504;-80
2022/11/27 04:36:58;;;;;;;6.70;5.82;;;6.00;99.90;;;;;;4984407;28;20061;-79
2022/11/27 04:39:24;;;;;;;15.27;5.53;;;6.00;99.90;;;;;;4985987;28;20112;-81
2022/11/27 04:41:49;;;;;;;9.55;4.28;;;6.00;99.90;;;;;;4985703;28;20114;-80
2022/11/27 04:44:15;;;;;;;5.68;4.35;;;6.00;99.90;;;;;;4986241;28;20046;-81
2022/11/27 04:46:41;;;;;;;18.83;5.78;;;6.00;99.90;;;;;;4984857;28;20085;-80
2022/11/27 04:49:08;;;;;;;7.68;4.47;;;6.00;99.90;;;;;;4984546;28;20043;-80
2022/11/27 04:51:34;;;;;;;8.02;4.45;;;6.00;99.90;;;;;;4986116;28;20057;-77
2022/11/27 04:53:59;;;;;;;8.38;4.70;;;6.00;99.90;;;;;;4984517;28;20046;-81
2022/11/27 04:56:25;;;;;;;6.80;4.20;;;6.00;99.90;;;;;;4984138;28;20069;-80
2022/11/27 04:58:51;;;;;;;8.25;5.85;;;6.10;99.90;;;;;;4985619;28;20043;-78
2022/11/27 05:01:16;;;;;;;16.27;6.13;;;6.00;99.90;;;;;;4985573;28;20497;-81
2022/11/27 05:03:42;;;;;;;8.23;4.80;;;6.00;99.90;;;;;;4984805;28;20086;-80
2022/11/27 05:06:07;;;;;;;7.18;4.60;;;6.00;99.90;;;;;;4983705;28;20054;-81
2022/11/27 05:08:33;;;;;;;9.25;4.43;;;6.00;99.90;;;;;;4985802;28;20081;-81
2022/11/27 05:11:06;;;;;;;16.25;4.70;;;6.00;99.90;;;;;;4985325;28;20105;-81
2022/11/27 05:13:32;;;;;;;7.30;4.57;;;6.00;99.90;;;;;;4983975;28;20042;-80
2022/11/27 05:15:58;;;;;;;6.88;4.65;;;6.00;99.90;;;;;;4986509;28;20046;-79
2022/11/27 05:18:24;;;;;;;7.57;3.67;;;6.00;99.90;;;;;;4988401;28;20543;-81
2022/11/27 05:21:04;;;;;;;8.85;6.00;;;6.00;99.90;;;;;;4987688;28;20045;-81
2022/11/27 05:23:31;;;;;;;5.28;4.15;;;6.00;99.90;;;;;;4989192;28;20484;-81
2022/11/27 05:25:56;;;;;;;13.07;4.63;;;6.00;99.90;;;;;;4987776;28;20049;-80
2022/11/27 05:28:23;;;;;;;11.82;4.63;;;6.00;99.90;;;;;;4987839;28;20046;-81
2022/11/27 05:30:48;;;;;;;7.22;4.80;;;6.00;99.90;;;;;;4989197;28;20133;-82
2022/11/27 05:33:16;;;;;;;4.88;3.65;;;6.00;99.90;;;;;;4989213;28;20133;-81
2022/11/27 05:35:42;;;;;;;5.25;3.75;;;6.00;99.90;;;;;;4989222;28;20042;-78
2022/11/27 05:38:08;;;;;;;8.73;4.88;;;6.00;99.90;;;;;;4989013;28;20061;-80
2022/11/27 05:40:34;;;;;;;19.27;6.13;;;6.00;99.90;;;;;;4989035;28;20038;-81
2022/11/27 05:43:00;;;;;;;4.53;3.83;;;6.00;99.90;;;;;;4988900;28;20048;-81
2022/11/27 05:45:25;;;;;;;7.82;3.20;;;6.00;99.90;;;;;;4988655;28;20054;-82
2022/11/27 05:47:51;;;;;;;3.55;2.95;;;6.00;99.90;;;;;;4986993;28;20081;-80
2022/11/27 05:50:17;;;;;;;8.95;4.13;;;6.00;99.90;;;;;;4988425;28;20486;-81
2022/11/27 05:52:42;;;;;;;12.00;4.10;;;6.00;99.90;;;;;;4988993;28;20074;-80
2022/11/27 05:55:08;;;;;;;6.47;4.57;;;6.00;99.90;;;;;;4988543;28;20485;-80
2022/11/27 05:57:34;;;;;;;4.63;2.92;;;6.00;99.90;;;;;;4988913;28;20050;-82
2022/11/27 05:59:59;;;;;;;6.53;3.33;;;6.00;99.90;;;;;;4988558;28;20047;-81
2022/11/27 06:02:25;;;;;;;7.90;4.68;;;6.00;99.90;;;;;;4986078;28;20046;-78
2022/11/27 06:04:51;;;;;;;6.82;4.18;;;6.00;99.90;;;;;;4988416;28;20047;-79
2022/11/27 06:07:17;;;;;;;15.85;5.03;;;6.00;99.90;;;;;;4988684;28;20034;-79
2022/11/27 06:09:43;;;;;;;9.57;4.03;;;6.00;99.90;;;;;;4987545;28;20047;-77
2022/11/27 06:12:08;;;;;;;6.05;3.80;;;6.00;99.90;;;;;;4987217;28;20077;-80
2022/11/27 06:14:35;;;;;;;9.82;3.95;;;6.00;99.90;;;;;;4987337;28;20169;-79
2022/11/27 06:17:02;;;;;;;5.85;3.10;;;6.00;99.90;;;;;;4988144;28;20516;-81
2022/11/27 06:19:28;;;;;;;10.57;3.45;;;6.00;99.90;;;;;;4986325;28;20034;-80
2022/11/27 06:21:54;;;;;;;7.85;3.97;;;6.00;99.90;;;;;;4988662;28;20042;-80
2022/11/27 06:24:20;;;;;;;6.85;3.25;;;6.00;99.90;;;;;;4986681;28;20053;-80
2022/11/27 06:26:46;;;;;;;3.83;3.42;;;6.00;99.90;;;;;;4988633;28;20091;-79
2022/11/27 06:29:11;;;;;;;8.55;3.33;;;6.00;99.90;;;;;;4987073;28;20050;-80
2022/11/27 06:31:38;;;;;;;8.95;3.78;;;6.10;99.90;;;;;;4988208;28;20077;-78
2022/11/27 06:34:05;;;;;;;8.05;3.70;;;6.10;99.90;;;;;;4987244;28;20505;-81
2022/11/27 06:36:34;;;;;;;6.47;4.70;;;6.10;99.90;;;;;;4986639;28;20046;-76
2022/11/27 06:39:00;;;;;;;5.65;3.83;;;6.00;99.90;;;;;;4987639;28;20042;-78
2022/11/27 06:41:27;;;;;;;4.90;3.00;;;6.10;99.90;;;;;;4987974;28;20046;-77
2022/11/27 06:43:53;;;;;;;4.90;3.42;;;6.00;99.90;;;;;;4987447;28;20042;-80
2022/11/27 06:46:21;;;;;;;10.80;4.97;;;6.10;99.90;;;;;;4987596;28;20545;-77
2022/11/27 06:48:48;;;;;;;6.53;4.30;;;6.10;99.90;;;;;;4987579;28;20492;-80
2022/11/27 06:51:18;;;;;;;11.80;2.75;;;6.00;99.90;;;;;;4987905;28;20161;-80
2022/11/27 06:53:44;;;;;;;6.68;3.58;;;6.00;99.90;;;;;;4988049;28;20046;-81
2022/11/27 06:56:14;;;;;;;7.13;3.08;;;6.10;99.90;;;;;;4986831;28;20053;-83
2022/11/27 06:58:40;;;;;;;6.20;3.38;;;6.00;99.90;;;;;;4986325;28;20042;-82
2022/11/27 07:01:10;;;;;;;5.07;3.47;;;6.00;99.90;;;;;;4969939;28;20061;-82
2022/11/27 07:03:36;;;;;;;3.55;2.78;;;6.00;99.90;;;;;;4986366;28;20440;-82
2022/11/27 07:06:05;;;;;;;3.45;3.15;;;6.10;99.90;;;;;;4987049;28;20076;-77
2022/11/27 07:08:32;;;;;;;7.45;3.80;;;6.00;99.90;;;;;;4987703;28;20046;-81
2022/11/27 07:11:03;;;;;;;4.35;3.00;;;6.10;99.90;;;;;;4985765;28;20042;-82
2022/11/27 07:13:30;;;;;;;4.18;3.20;;;6.00;99.90;;;;;;4986220;28;20401;-82
2022/11/27 07:16:02;;;;;;;5.32;3.38;;;6.10;99.90;;;;;;4985924;28;20187;-78
2022/11/27 07:18:29;;;;;;;3.50;2.13;;;6.10;99.90;;;;;;4986727;28;20539;-83
2022/11/27 07:20:55;;;;;;;8.60;3.28;;;6.10;99.90;;;;;;4986972;28;20047;-82
2022/11/27 07:23:20;;;;;;;20.13;4.28;;;6.10;99.90;;;;;;4985340;28;20049;-79
2022/11/27 07:25:46;;;;;;;7.75;3.50;;;6.10;99.90;;;;;;4985903;28;20047;-80
2022/11/27 07:28:11;;;;;;;5.78;2.53;;;6.10;99.90;;;;;;4985997;28;20070;-79
2022/11/27 07:30:37;;;;;;;7.43;3.65;;;6.10;99.90;;;;;;4986364;28;20074;-82
2022/11/27 07:33:03;;;;;;;5.38;3.00;;;6.10;99.90;;;;;;4984522;28;20070;-81
2022/11/27 07:35:28;;;;;;;3.67;3.35;;;6.10;99.90;;;;;;4985492;28;20049;-82
2022/11/27 07:37:54;;;;;;;12.73;4.40;;;6.10;99.90;;;;;;4986170;28;20060;-79
2022/11/27 07:40:20;;;;;;;7.10;3.20;;;6.10;99.90;;;;;;4998825;28;20047;-83
2022/11/27 07:42:45;;;;;;;6.38;3.40;;;6.10;99.90;;;;;;4972642;28;20520;-82
2022/11/27 07:45:11;;;;;;;6.57;2.63;;;6.10;99.90;;;;;;4968989;28;20104;-83
2022/11/27 07:47:37;;;;;;;8.65;3.70;;;6.10;99.90;;;;;;4983366;28;20596;-81
2022/11/27 07:50:06;;;;;;;5.38;2.42;;;6.10;99.90;;;;;;4977736;28;20089;-81
2022/11/27 07:52:34;;;;;;;4.20;2.40;;;6.10;99.90;;;;;;4976968;28;20125;-83
2022/11/27 07:54:59;;;;;;;4.28;3.05;;;6.10;99.90;;;;;;4985595;28;20099;-80
2022/11/27 07:57:26;;;;;;;4.30;2.20;;;6.10;99.90;;;;;;4984643;28;20509;-83
2022/11/27 07:59:52;;;;;;;4.53;3.17;;;6.10;99.90;;;;;;4984333;28;20042;-83
2022/11/27 08:02:18;;;;;;;4.22;3.78;;;6.10;99.90;;;;;;4984129;28;20106;-79
2022/11/27 08:04:44;;;;;;;3.95;2.70;;;6.10;99.90;;;;;;4986238;28;20489;-84
2022/11/27 08:07:09;;;;;;;6.10;3.50;;;6.10;99.90;;;;;;4984121;28;20038;-83
2022/11/27 08:09:36;;;;;;;13.20;3.90;;;6.10;99.90;;;;;;5006337;28;20050;-84
2022/11/27 08:12:03;;;;;;;5.95;3.92;;;6.10;99.90;;;;;;5000154;28;20093;-83
2022/11/27 08:14:28;;;;;;;6.93;3.13;;;6.20;99.90;;;;;;4983743;28;20089;-84
2022/11/27 08:16:54;;;;;;;7.82;3.47;;;6.10;99.90;;;;;;4977094;28;20066;-84
2022/11/27 08:19:20;;;;;;;4.38;2.40;;;6.10;99.90;;;;;;4983748;28;20046;-82
2022/11/27 08:21:46;;;;;;;8.88;3.17;;;6.10;99.90;;;;;;4983545;28;20528;-83
2022/11/27 08:24:11;;;;;;;3.40;2.40;;;6.10;99.90;;;;;;4977148;28;20126;-82
2022/11/27 08:26:37;;;;;;;3.17;2.33;;;6.10;99.90;;;;;;4968474;28;20115;-82
2022/11/27 08:29:05;;;;;;;5.97;2.50;;;6.10;99.90;;;;;;4971509;28;20117;-85
2022/11/27 08:31:31;;;;;;;2.10;1.50;;;6.20;99.90;;;;;;4968196;28;20039;-83
2022/11/27 08:33:56;;;;;;;5.32;4.28;;;6.10;99.90;;;;;;4974645;28;20045;-85
2022/11/27 08:36:25;;;;;;;5.55;3.03;;;6.20;99.90;;;;;;4972869;28;20038;-83
2022/11/27 08:38:51;;;;;;;5.10;3.20;;;6.10;99.90;;;;;;4971556;28;20054;-84
2022/11/27 08:41:16;;;;;;;11.07;3.78;;;6.20;99.90;;;;;;4981362;28;21411;-85
2022/11/27 08:43:42;;;;;;;8.57;4.03;;;6.20;99.90;;;;;;4957600;28;20382;-82
2022/11/27 08:46:08;;;;;;;4.22;2.45;;;6.20;99.90;;;;;;4979395;28;20453;-78
2022/11/27 08:48:34;;;;;;;6.63;2.83;;;6.20;99.90;;;;;;4981705;28;20125;-76
2022/11/27 08:51:05;;;;;;;3.90;3.55;;;6.20;99.90;;;;;;4977232;28;20081;-76
2022/11/27 08:53:31;;;;;;;4.43;3.13;;;6.20;99.90;;;;;;4980754;28;20359;-78
2022/11/27 08:56:04;;;;;;;3.65;2.45;;;6.20;99.90;;;;;;4979721;28;20047;-77
2022/11/27 08:58:30;;;;;;;4.47;2.65;;;6.20;99.90;;;;;;4985644;28;20041;-77
2022/11/27 09:00:55;;;;;;;3.97;3.15;;;6.20;99.90;;;;;;4971065;28;20490;-78
2022/11/27 09:03:21;;;;;;;3.60;2.35;;;6.20;99.90;;;;;;4971395;28;20552;-74
2022/11/27 09:05:47;;;;;;;5.57;2.38;;;6.20;99.90;;;;;;4976759;28;20417;-74
2022/11/27 09:08:18;;;;;;;4.65;3.65;;;6.20;99.90;;;;;;4962539;28;20050;-74
2022/11/27 09:10:44;;;;;;;11.63;3.45;;;6.20;99.90;;;;;;4957823;28;20046;-74
2022/11/27 09:13:10;;;;;;;6.30;3.28;;;6.20;99.90;;;;;;4982168;28;20129;-74
2022/11/27 09:15:36;;;;;;;4.50;3.30;;;6.20;99.90;;;;;;4979644;28;20050;-75
2022/11/27 09:18:02;;;;;;;6.43;3.05;;;6.20;99.90;;;;;;4983218;28;20653;-74
2022/11/27 09:20:27;;;;;;;6.43;3.22;;;6.20;99.90;;;;;;4980119;28;20050;-74
2022/11/27 09:22:53;;;;;;;6.80;2.85;;;6.20;99.90;;;;;;4974017;28;20397;-74
2022/11/27 09:25:18;;;;;;;5.88;3.25;;;6.20;99.90;;;;;;4976490;28;20035;-77
2022/11/27 09:27:44;;;;;;;5.25;3.05;;;6.20;99.90;;;;;;4982091;28;20885;-76
2022/11/27 09:30:10;;;;;;;5.47;2.67;;;6.20;99.90;;;;;;4977835;28;20051;-75
2022/11/27 09:32:36;;;;;;;4.85;3.03;;;6.20;99.90;;;;;;4981090;28;20125;-75
2022/11/27 09:35:02;;;;;;;6.93;4.75;;;6.20;99.90;;;;;;4970201;28;20170;-74
2022/11/27 09:37:27;;;;;;;6.50;2.95;;;6.30;99.90;;;;;;4969145;28;20457;-76
2022/11/27 09:39:54;;;;;;;5.22;3.92;;;6.30;99.90;;;;;;4973094;28;20050;-75
2022/11/27 09:42:40;;;;;;;5.63;3.22;;;6.30;99.90;;;;;;4977330;28;20117;-75
2022/11/27 09:45:12;;;;;;;7.22;3.15;;;6.30;99.90;;;;;;4969276;28;20498;-75
2022/11/27 09:47:57;;;;;;;8.73;3.53;;;6.30;99.90;;;;;;4977883;28;20042;-76
2022/11/27 09:50:34;;;;;;;6.05;3.63;;;6.30;99.90;;;;;;4966845;28;20086;-74
2022/11/27 09:53:17;;;;;;;5.00;3.63;;;6.30;99.90;;;;;;4963176;28;20078;-75
2022/11/27 09:55:47;;;;;;;6.60;3.60;;;6.30;99.90;;;;;;4964023;28;20113;-74
2022/11/27 09:58:37;;;;;;;4.55;2.83;;;6.30;99.90;;;;;;4987507;28;20109;-74
2022/11/27 10:01:16;;;;;;;5.82;3.50;;;6.30;99.90;;;;;;4978505;28;20483;-75
2022/11/27 10:03:44;;;;;;;5.15;3.25;;;6.30;99.90;;;;;;4965280;28;20398;-73
2022/11/27 10:06:40;;;;;;;4.35;3.28;;;6.30;99.90;;;;;;4968083;28;20047;-75
2022/11/27 10:10:00;;;;;;;11.73;4.95;;;6.40;99.90;;;;;;4993519;28;20046;-75
2022/11/27 10:12:55;;;;;;;7.43;3.50;;;6.40;99.90;;;;;;4937713;29;20126;-74
2022/11/27 10:15:26;;;;;;;16.10;4.63;;;6.40;99.90;;;;;;4964813;28;20055;-74
2022/11/27 10:18:03;;;;;;;8.90;3.60;;;6.40;99.90;;;;;;4982829;28;20057;-74
2022/11/27 10:20:43;;;;;;;5.32;3.97;;;6.40;99.90;;;;;;4980099;28;20077;-75
2022/11/27 10:23:40;;;;;;;5.50;3.72;;;6.40;99.90;;;;;;4964436;28;20062;-74
2022/11/27 10:26:19;;;;;;;7.30;4.03;;;6.40;99.90;;;;;;4958433;28;20046;-74
2022/11/27 10:28:59;;;;;;;5.90;4.10;;;6.40;99.90;;;;;;4976670;28;20078;-74
2022/11/27 10:31:36;;;;;;;9.63;4.53;;;6.40;99.90;;;;;;4973184;28;20038;-75
2022/11/27 10:34:06;;;;;;;6.38;4.03;;;6.40;99.90;;;;;;4975880;28;20045;-75
2022/11/27 10:36:42;;;;;;;9.63;5.18;;;6.40;99.90;;;;;;4969929;28;20058;-74
2022/11/27 10:39:34;;;;;;;5.38;4.72;;;6.40;99.90;;;;;;4973358;28;20043;-74
2022/11/27 10:42:10;;;;;;;16.27;4.33;;;6.40;99.90;;;;;;4980158;28;20054;-74
2022/11/27 10:44:42;;;;;;;5.35;4.05;;;6.40;99.90;;;;;;4973204;28;20298;-74
2022/11/27 10:47:11;;;;;;;10.35;4.70;;;6.40;99.90;;;;;;4976213;28;20050;-74
2022/11/27 10:49:39;;;;;;;9.27;4.57;;;6.50;99.90;;;;;;4979498;28;20043;-75
2022/11/27 10:52:11;;;;;;;14.35;4.20;;;6.50;99.90;;;;;;4971312;28;20058;-74
2022/11/27 10:54:37;;;;;;;5.28;3.92;;;6.50;99.90;;;;;;4971419;28;20034;-75
2022/11/27 10:57:45;;;;;;;7.38;3.58;;;6.50;99.90;;;;;;4978806;28;20045;-74
2022/11/27 11:00:17;;;;;;;8.52;4.40;;;6.50;99.90;;;;;;4956656;28;20042;-75
2022/11/27 11:02:43;;;;;;;6.30;4.03;;;6.50;99.90;;;;;;4971497;28;20035;-77
2022/11/27 11:05:19;;;;;;;9.02;5.57;;;6.50;99.90;;;;;;4985479;28;20057;-75
2022/11/27 11:08:00;;;;;;;7.90;4.50;;;6.50;99.90;;;;;;4979483;28;20086;-75
2022/11/27 11:10:36;;;;;;;9.27;3.83;;;6.60;99.90;;;;;;4983888;28;20390;-75
2022/11/27 11:13:04;;;;;;;9.70;4.78;;;6.50;99.90;;;;;;4978511;28;20031;-75
2022/11/27 11:15:31;;;;;;;10.40;6.35;;;6.60;99.90;;;;;;4965847;28;20152;-76
2022/11/27 11:17:56;;;;;;;7.10;4.80;;;6.60;99.90;;;;;;4967992;28;20042;-75
2022/11/27 11:20:23;;;;;;;7.22;5.43;;;6.60;99.90;;;;;;4985326;28;20519;-73
2022/11/27 11:22:49;;;;;;;8.82;5.85;;;6.60;99.90;;;;;;4965001;28;20070;-75
2022/11/27 11:25:17;;;;;;;10.65;4.90;;;6.60;99.90;;;;;;4975569;28;20404;-74
2022/11/27 11:27:45;;;;;;;6.72;4.03;;;6.70;99.90;;;;;;4974840;28;20044;-76
2022/11/27 11:30:27;;;;;;;4.85;3.83;;;6.70;99.90;;;;;;4977366;28;20046;-76
2022/11/27 11:33:00;;;;;;;7.95;4.82;;;6.70;99.90;;;;;;4951810;28;20097;-76
2022/11/27 11:35:34;;;;;;;8.43;4.47;;;6.70;99.90;;;;;;4981845;28;20094;-75
2022/11/27 11:38:03;;;;;;;8.75;5.05;;;6.70;99.90;;;;;;4974296;28;20049;-76
2022/11/27 11:40:31;;;;;;;7.65;5.20;;;6.70;99.90;;;;;;4983362;28;20122;-76
2022/11/27 11:43:04;;;;;;;8.82;4.90;;;6.70;99.90;;;;;;4984589;28;20399;-75
2022/11/27 11:45:31;;;;;;;7.53;4.63;;;6.70;99.90;;;;;;4982114;28;20121;-74
2022/11/27 11:48:00;;;;;;;6.53;4.40;;;6.70;99.90;;;;;;4973037;28;20047;-77
2022/11/27 11:50:45;;;;;;;6.57;4.75;;;6.70;99.90;;;;;;4969531;28;20051;-77
2022/11/27 11:53:34;;;;;;;11.43;4.93;;;6.70;99.90;;;;;;4971847;28;20051;-73
2022/11/27 11:56:18;;;;;;;10.50;5.43;;;6.70;99.90;;;;;;4984079;28;20409;-76
2022/11/27 11:58:59;;;;;;;7.55;4.43;;;6.70;99.90;;;;;;4970269;28;20499;-74
2022/11/27 12:01:52;;;;;;;8.32;4.45;;;6.80;99.90;;;;;;4949291;28;20122;-73
2022/11/27 12:05:02;;;;;;;11.85;6.00;;;6.80;99.90;;;;;;4984503;28;20046;-75
2022/11/27 12:08:04;;;;;;;6.07;4.95;;;6.70;99.90;;;;;;4970320;28;20047;-75
2022/11/27 12:10:40;;;;;;;8.00;4.20;;;6.80;99.90;;;;;;4948671;28;20050;-74
2022/11/27 12:13:27;;;;;;;9.50;4.28;;;6.80;99.90;;;;;;4985154;28;20484;-75
2022/11/27 12:16:08;;;;;;;10.05;5.03;;;6.80;99.90;;;;;;4960345;28;20046;-77
2022/11/27 12:19:15;;;;;;;10.02;5.75;;;6.80;99.90;;;;;;4967393;28;20052;-77
2022/11/27 12:21:52;;;;;;;7.55;5.18;;;6.80;99.90;;;;;;4921369;28;20063;-77
2022/11/27 12:24:52;;;;;;;8.13;5.90;;;6.80;99.90;;;;;;4988902;28;20039;-77
2022/11/27 12:27:45;;;;;;;8.02;5.90;;;6.90;99.90;;;;;;4973305;28;20061;-78
2022/11/27 12:30:42;;;;;;;10.32;5.63;;;6.90;99.90;;;;;;4978803;28;20506;-77
2022/11/27 12:33:26;;;;;;;9.45;5.45;;;6.90;99.90;;;;;;4973851;28;20553;-78
2022/11/27 12:36:01;;;;;;;8.25;5.10;;;6.90;99.90;;;;;;4968522;28;20177;-77
2022/11/27 12:38:50;;;;;;;10.82;4.50;;;6.90;99.90;;;;;;4981434;28;20054;-78
2022/11/27 12:41:24;;;;;;;6.18;3.92;;;6.90;99.90;;;;;;4983570;28;20069;-78
2022/11/27 12:43:54;;;;;;;8.82;5.25;;;6.90;99.90;;;;;;4973171;28;20035;-78
2022/11/27 12:46:28;;;;;;;11.98;5.15;;;6.90;99.90;;;;;;4979793;28;20042;-77
2022/11/27 12:49:19;;;;;;;11.65;5.38;;;6.90;99.90;;;;;;4984295;28;20046;-77
2022/11/27 12:52:04;;;;;;;9.05;5.90;;;6.90;99.90;;;;;;4983487;28;20133;-78
2022/11/27 12:54:53;;;;;;;15.27;5.60;;;6.90;99.90;;;;;;4959425;28;20195;-78
2022/11/27 12:57:50;;;;;;;9.32;4.93;;;6.90;99.90;;;;;;4981520;28;20464;-77
2022/11/27 13:00:22;;;;;;;10.68;6.18;;;6.90;99.90;;;;;;4973732;28;20062;-77
2022/11/27 13:03:07;;;;;;;8.70;5.18;;;6.90;99.90;;;;;;4983284;28;20386;-78
2022/11/27 13:05:39;;;;;;;12.95;5.82;;;6.90;99.90;;;;;;4984047;28;20042;-78
2022/11/27 13:08:10;;;;;;;12.90;7.22;;;6.90;99.90;;;;;;4981090;28;20273;-77
2022/11/27 13:10:42;;;;;;;7.35;4.57;;;6.90;99.90;;;;;;4981195;28;20049;-76
2022/11/27 13:13:16;;;;;;;9.18;5.68;;;6.90;99.90;;;;;;4978825;28;20046;-76